createdAt,value
2022-09-15T00:00:01.060Z,4.07
2022-09-15T00:01:34.050Z,3.83
2022-09-15T00:03:06.044Z,4.20
2022-09-15T00:04:38.962Z,3.70
2022-09-15T00:06:13.522Z,3.30
2022-09-15T00:07:46.490Z,3.55
2022-09-15T00:09:19.506Z,3.60
2022-09-15T00:10:54.727Z,3.70
2022-09-15T00:12:28.641Z,3.40
2022-09-15T00:14:03.353Z,3.75
2022-09-15T00:15:35.797Z,3.20
2022-09-15T00:17:08.794Z,4.07
2022-09-15T00:18:42.669Z,3.38
2022-09-15T00:20:16.290Z,3.85
2022-09-15T00:21:50.519Z,3.67
2022-09-15T00:23:23.399Z,3.55
2022-09-15T00:24:56.248Z,3.45
2022-09-15T00:26:31.561Z,3.70
2022-09-15T00:28:04.435Z,3.67
2022-09-15T00:29:37.988Z,3.67
2022-09-15T00:31:12.742Z,3.92
2022-09-15T00:32:45.645Z,3.97
2022-09-15T00:34:18.530Z,3.83
2022-09-15T00:35:52.664Z,3.70
2022-09-15T00:37:27.335Z,3.80
2022-09-15T00:39:00.320Z,3.92
2022-09-15T00:40:32.328Z,3.75
2022-09-15T00:42:05.724Z,4.00
2022-09-15T00:43:50.506Z,3.75
2022-09-15T00:45:23.566Z,4.00
2022-09-15T00:47:15.599Z,3.88
2022-09-15T00:48:55.454Z,4.30
2022-09-15T00:50:28.448Z,4.60
2022-09-15T00:52:03.914Z,3.90
2022-09-15T00:53:38.869Z,4.15
2022-09-15T00:55:16.137Z,3.85
2022-09-15T00:56:52.703Z,3.92
2022-09-15T00:58:30.044Z,4.30
2022-09-15T01:00:07.638Z,4.07
2022-09-15T01:01:43.098Z,4.05
2022-09-15T01:03:17.500Z,4.20
2022-09-15T01:04:57.447Z,3.80
2022-09-15T01:06:35.297Z,4.22
2022-09-15T01:08:12.150Z,3.70
2022-09-15T01:09:50.880Z,4.38
2022-09-15T01:11:23.935Z,4.10
2022-09-15T01:12:59.369Z,4.00
2022-09-15T01:14:32.298Z,4.18
2022-09-15T01:16:13.811Z,4.05
2022-09-15T01:18:01.471Z,4.35
2022-09-15T01:20:10.759Z,4.20
2022-09-15T01:21:47.398Z,4.13
2022-09-15T01:23:42.003Z,4.35
2022-09-15T01:25:27.674Z,4.10
2022-09-15T01:27:24.411Z,4.05
2022-09-15T01:29:34.355Z,4.15
2022-09-15T01:31:16.723Z,3.80
2022-09-15T01:33:06.494Z,4.10
2022-09-15T01:34:44.892Z,3.70
2022-09-15T01:36:22.695Z,4.10
2022-09-15T01:38:02.207Z,3.95
2022-09-15T01:39:40.291Z,4.00
2022-09-15T01:41:17.725Z,4.10
2022-09-15T01:42:52.116Z,4.22
2022-09-15T01:44:29.016Z,4.10
2022-09-15T01:46:03.076Z,4.30
2022-09-15T01:47:38.223Z,3.92
2022-09-15T01:49:14.713Z,3.80
2022-09-15T01:50:52.166Z,3.85
2022-09-15T01:52:25.881Z,3.53
2022-09-15T01:54:03.350Z,3.50
2022-09-15T01:55:40.457Z,3.03
2022-09-15T01:57:13.417Z,3.33
2022-09-15T01:58:46.301Z,3.22
2022-09-15T02:00:18.494Z,3.40
2022-09-15T02:01:58.994Z,3.08
2022-09-15T02:03:43.042Z,3.30
2022-09-15T02:05:20.746Z,3.00
2022-09-15T02:06:58.731Z,3.40
2022-09-15T02:08:38.206Z,3.03
2022-09-15T02:10:16.353Z,3.00
2022-09-15T02:11:56.400Z,2.92
2022-09-15T02:13:39.256Z,2.85
2022-09-15T02:15:14.979Z,3.10
2022-09-15T02:16:50.866Z,2.75
2022-09-15T02:18:30.462Z,3.53
2022-09-15T02:20:12.129Z,2.90
2022-09-15T02:21:57.049Z,3.03
2022-09-15T02:23:35.427Z,3.08
2022-09-15T02:25:12.527Z,3.53
2022-09-15T02:26:48.046Z,3.10
2022-09-15T02:28:26.781Z,3.22
2022-09-15T02:30:09.059Z,3.30
2022-09-15T02:31:42.274Z,3.30
2022-09-15T02:34:54.503Z,3.30
2022-09-15T02:36:29.316Z,3.20
2022-09-15T02:38:04.237Z,3.13
2022-09-15T02:39:40.885Z,3.00
2022-09-15T02:41:14.180Z,3.20
2022-09-15T02:44:25.221Z,2.97
2022-09-15T02:45:58.454Z,3.47
2022-09-15T02:49:04.174Z,3.42
2022-09-15T02:50:37.378Z,3.25
2022-09-15T02:53:48.369Z,3.42
2022-09-15T02:55:21.432Z,3.22
2022-09-15T02:56:54.346Z,3.60
2022-09-15T02:58:27.207Z,3.70
2022-09-15T03:00:15.908Z,3.40
2022-09-15T03:01:48.928Z,3.20
2022-09-15T03:03:21.943Z,3.50
2022-09-15T03:04:55.214Z,3.53
2022-09-15T03:08:05.204Z,3.60
2022-09-15T03:09:38.390Z,3.50
2022-09-15T03:12:46.854Z,3.88
2022-09-15T03:14:20.217Z,4.00
2022-09-15T03:15:53.163Z,3.65
2022-09-15T03:17:26.334Z,4.13
2022-09-15T03:20:33.363Z,3.72
2022-09-15T03:22:06.879Z,3.80
2022-09-15T03:23:41.529Z,3.88
2022-09-15T03:25:14.613Z,4.03
2022-09-15T03:26:48.110Z,3.70
2022-09-15T03:28:20.062Z,4.60
2022-09-15T03:29:53.142Z,4.53
2022-09-15T03:31:26.152Z,5.82
2022-09-15T03:32:59.143Z,7.72
2022-09-15T03:34:32.287Z,3.60
2022-09-15T03:37:39.049Z,3.30
2022-09-15T03:40:56.616Z,3.25
2022-09-15T03:42:29.556Z,7.68
2022-09-15T03:44:02.781Z,5.35
2022-09-15T03:47:07.717Z,5.10
2022-09-15T03:48:41.625Z,3.40
2022-09-15T03:50:14.662Z,3.40
2022-09-15T03:51:47.648Z,3.17
2022-09-15T03:53:21.001Z,3.50
2022-09-15T03:54:55.609Z,3.08
2022-09-15T03:56:31.218Z,2.90
2022-09-15T03:58:03.276Z,2.65
2022-09-15T03:59:36.326Z,2.70
2022-09-15T04:01:09.417Z,2.75
2022-09-15T04:04:14.898Z,2.50
2022-09-15T04:05:47.792Z,2.53
2022-09-15T04:07:20.833Z,2.80
2022-09-15T04:08:54.147Z,2.88
2022-09-15T04:12:01.375Z,2.90
2022-09-15T04:13:33.512Z,2.63
2022-09-15T04:15:07.484Z,3.00
2022-09-15T04:16:39.469Z,9.38
2022-09-15T04:18:12.611Z,5.93
2022-09-15T04:19:45.588Z,3.15
2022-09-15T04:21:19.533Z,2.88
2022-09-15T04:22:52.489Z,3.13
2022-09-15T04:24:25.514Z,3.00
2022-09-15T04:26:01.549Z,2.63
2022-09-15T04:27:36.316Z,2.80
2022-09-15T04:29:15.742Z,2.65
2022-09-15T04:30:48.689Z,2.80
2022-09-15T04:32:22.028Z,2.90
2022-09-15T04:33:56.274Z,3.30
2022-09-15T04:35:29.316Z,3.10
2022-09-15T04:37:02.599Z,3.03
2022-09-15T04:38:36.305Z,3.00
2022-09-15T04:40:11.354Z,2.58
2022-09-15T04:41:45.745Z,2.70
2022-09-15T04:43:18.758Z,2.75
2022-09-15T04:44:51.889Z,2.85
2022-09-15T04:46:23.977Z,3.30
2022-09-15T04:47:56.930Z,7.53
2022-09-15T04:49:29.970Z,12.43
2022-09-15T04:51:03.883Z,3.03
2022-09-15T04:52:36.829Z,2.83
2022-09-15T04:54:09.916Z,2.70
2022-09-15T04:55:42.889Z,3.00
2022-09-15T04:57:17.290Z,2.75
2022-09-15T04:58:52.990Z,2.60
2022-09-15T05:00:26.919Z,2.58
2022-09-15T05:01:58.973Z,2.60
2022-09-15T05:03:31.906Z,2.70
2022-09-15T05:05:05.221Z,3.03
2022-09-15T05:08:10.896Z,2.80
2022-09-15T05:09:44.030Z,2.70
2022-09-15T05:11:17.398Z,2.70
2022-09-15T05:12:51.699Z,2.58
2022-09-15T05:14:24.764Z,2.63
2022-09-15T05:15:57.742Z,2.60
2022-09-15T05:17:32.507Z,2.50
2022-09-15T05:19:05.766Z,3.50
2022-09-15T05:22:10.404Z,2.33
2022-09-15T05:23:43.477Z,2.70
2022-09-15T05:25:16.483Z,2.80
2022-09-15T05:26:49.477Z,2.45
2022-09-15T05:28:24.482Z,3.00
2022-09-15T05:30:23.632Z,3.63
2022-09-15T05:31:50.830Z,2.65
2022-09-15T05:33:24.781Z,3.85
2022-09-15T05:34:57.996Z,2.85
2022-09-15T05:38:04.100Z,2.47
2022-09-15T05:41:17.556Z,2.75
2022-09-15T05:42:50.538Z,2.90
2022-09-15T05:44:24.862Z,2.72
2022-09-15T05:45:56.812Z,2.92
2022-09-15T05:47:30.161Z,2.70
2022-09-15T05:49:03.186Z,3.10
2022-09-15T05:50:35.534Z,2.95
2022-09-15T05:52:08.434Z,3.40
2022-09-15T05:53:41.722Z,2.90
2022-09-15T05:55:14.848Z,3.20
2022-09-15T05:56:47.876Z,3.00
2022-09-15T05:58:19.779Z,3.58
2022-09-15T05:59:54.092Z,3.10
2022-09-15T06:01:28.638Z,2.92
2022-09-15T06:03:01.885Z,2.72
2022-09-15T06:06:08.198Z,3.15
2022-09-15T06:09:14.099Z,2.90
2022-09-15T06:10:47.404Z,3.30
2022-09-15T06:12:20.437Z,3.33
2022-09-15T06:13:53.792Z,2.80
2022-09-15T06:15:28.278Z,3.55
2022-09-15T06:17:01.187Z,2.80
2022-09-15T06:18:36.002Z,3.00
2022-09-15T06:20:10.055Z,3.00
2022-09-15T06:21:43.047Z,3.15
2022-09-15T06:23:15.370Z,2.97
2022-09-15T06:24:48.433Z,4.88
2022-09-15T06:26:21.515Z,6.35
2022-09-15T06:27:54.786Z,4.90
2022-09-15T06:31:03.595Z,4.00
2022-09-15T06:32:47.421Z,4.65
2022-09-15T06:34:21.693Z,3.85
2022-09-15T06:35:54.987Z,3.85
2022-09-15T06:37:27.959Z,3.28
2022-09-15T06:39:01.120Z,3.80
2022-09-15T06:42:06.462Z,3.28
2022-09-15T06:43:39.822Z,3.25
2022-09-15T06:45:12.971Z,3.30
2022-09-15T06:46:47.195Z,3.58
2022-09-15T06:48:24.837Z,3.00
2022-09-15T06:49:59.659Z,3.30
2022-09-15T06:51:35.420Z,3.70
2022-09-15T06:53:07.381Z,3.70
2022-09-15T06:54:40.443Z,3.58
2022-09-15T06:56:16.085Z,3.28
2022-09-15T06:57:50.859Z,3.00
2022-09-15T06:59:24.566Z,3.17
2022-09-15T07:01:04.756Z,3.58
2022-09-15T07:02:39.352Z,3.08
2022-09-15T07:04:12.585Z,3.13
2022-09-15T07:07:19.280Z,2.80
2022-09-15T07:08:55.186Z,3.20
2022-09-15T07:10:28.391Z,4.35
2022-09-15T07:13:34.150Z,3.40
2022-09-15T07:15:08.506Z,1.65
2022-09-15T07:16:41.479Z,2.13
2022-09-15T07:18:15.857Z,1.10
2022-09-15T07:19:48.828Z,1.00
2022-09-15T07:21:22.220Z,0.95
2022-09-15T07:22:54.317Z,0.90
2022-09-15T07:24:27.362Z,0.90
2022-09-15T07:26:07.630Z,0.90
2022-09-15T07:27:40.580Z,0.90
2022-09-15T07:29:13.850Z,0.80
2022-09-15T07:32:24.664Z,1.08
2022-09-15T07:34:02.946Z,1.10
2022-09-15T07:35:36.460Z,1.27
2022-09-15T07:37:09.351Z,1.00
2022-09-15T07:38:44.429Z,0.90
2022-09-15T07:40:17.458Z,0.85
2022-09-15T07:41:50.407Z,0.80
2022-09-15T07:43:23.382Z,0.85
2022-09-15T07:44:56.186Z,0.80
2022-09-15T07:46:32.226Z,0.90
2022-09-15T07:48:06.347Z,1.15
2022-09-15T07:49:40.608Z,1.50
2022-09-15T07:51:13.986Z,1.23
2022-09-15T07:52:47.006Z,1.20
2022-09-15T07:54:22.869Z,1.20
2022-09-15T07:55:56.907Z,1.05
2022-09-15T07:57:29.833Z,0.90
2022-09-15T07:59:03.134Z,0.80
2022-09-15T08:02:10.934Z,0.75
2022-09-15T08:03:46.327Z,0.73
2022-09-15T08:05:20.886Z,0.60
2022-09-15T08:06:55.444Z,1.23
2022-09-15T08:08:29.015Z,0.80
2022-09-15T08:10:02.143Z,0.80
2022-09-15T08:11:35.177Z,0.80
2022-09-15T08:13:07.132Z,0.80
2022-09-15T08:14:40.104Z,0.80
2022-09-15T08:16:15.011Z,0.85
2022-09-15T08:17:47.185Z,0.80
2022-09-15T08:19:20.781Z,0.80
2022-09-15T08:20:55.493Z,1.70
2022-09-15T08:22:28.596Z,2.00
2022-09-15T08:24:05.315Z,2.00
2022-09-15T08:25:39.171Z,1.50
2022-09-15T08:27:12.134Z,1.42
2022-09-15T08:28:45.265Z,1.52
2022-09-15T08:31:51.794Z,0.97
2022-09-15T08:34:58.164Z,1.00
2022-09-15T08:36:32.631Z,0.80
2022-09-15T08:38:06.558Z,0.85
2022-09-15T08:39:39.786Z,0.70
2022-09-15T08:42:49.139Z,0.80
2022-09-15T08:44:36.020Z,0.80
2022-09-15T08:46:15.389Z,0.70
2022-09-15T08:47:51.483Z,0.60
2022-09-15T08:49:47.836Z,0.80
2022-09-15T08:51:28.637Z,0.80
2022-09-15T08:53:06.883Z,1.00
2022-09-15T08:54:40.501Z,0.70
2022-09-15T08:56:18.037Z,0.80
2022-09-15T08:57:53.877Z,0.70
2022-09-15T08:59:32.675Z,0.82
2022-09-15T09:01:17.119Z,0.70
2022-09-15T09:03:24.006Z,0.90
2022-09-15T09:05:05.291Z,0.95
2022-09-15T09:06:47.133Z,0.80
2022-09-15T09:08:46.313Z,0.85
2022-09-15T09:10:30.274Z,0.95
2022-09-15T09:12:44.898Z,1.20
2022-09-15T09:14:26.339Z,1.20
2022-09-15T09:27:58.285Z,1.00
2022-09-15T09:29:35.723Z,0.90
2022-09-15T09:31:18.641Z,1.05
2022-09-15T09:32:58.582Z,0.95
2022-09-15T09:34:39.335Z,0.90
2022-09-15T09:36:13.259Z,0.90
2022-09-15T09:37:46.578Z,1.10
2022-09-15T09:39:19.600Z,1.00
2022-09-15T09:40:52.927Z,0.90
2022-09-15T09:42:29.952Z,0.90
2022-09-15T09:44:07.490Z,0.95
2022-09-15T09:45:40.478Z,0.90
2022-09-15T09:47:13.610Z,0.98
2022-09-15T09:50:38.682Z,1.80
2022-09-15T09:52:13.022Z,1.80
2022-09-15T09:53:54.372Z,1.50
2022-09-15T09:55:28.957Z,1.45
2022-09-15T09:57:23.399Z,1.30
2022-09-15T09:58:56.675Z,1.33
2022-09-15T10:02:15.755Z,1.00
2022-09-15T10:03:48.811Z,0.80
2022-09-15T10:05:21.960Z,0.90
2022-09-15T10:06:57.411Z,0.82
2022-09-15T10:08:30.813Z,0.90
2022-09-15T10:10:04.483Z,0.82
2022-09-15T10:11:43.016Z,0.80
2022-09-15T10:13:15.937Z,1.05
2022-09-15T10:14:53.309Z,0.90
2022-09-15T10:16:27.779Z,1.00
2022-09-15T10:18:02.253Z,1.25
2022-09-15T10:19:45.124Z,1.08
2022-09-15T10:21:23.464Z,0.90
2022-09-15T10:23:04.867Z,1.38
2022-09-15T10:24:40.799Z,1.10
2022-09-15T10:26:22.099Z,1.30
2022-09-15T10:28:04.553Z,1.02
2022-09-15T10:29:40.892Z,0.90
2022-09-15T10:31:26.617Z,1.08
2022-09-15T10:33:20.251Z,1.13
2022-09-15T10:35:05.210Z,1.00
2022-09-15T10:36:38.753Z,1.23
2022-09-15T10:38:15.763Z,1.50
2022-09-15T10:39:55.240Z,1.10
2022-09-15T10:41:31.040Z,0.85
2022-09-15T10:43:26.250Z,1.27
2022-09-15T10:45:10.975Z,0.80
2022-09-15T10:46:56.339Z,1.17
2022-09-15T10:48:49.428Z,0.90
2022-09-15T10:50:28.600Z,1.35
2022-09-15T10:52:13.684Z,1.40
2022-09-15T10:54:15.081Z,1.23
2022-09-15T10:55:56.081Z,1.20
2022-09-15T10:57:44.162Z,1.60
2022-09-15T10:59:43.103Z,1.40
2022-09-15T11:01:36.002Z,1.40
2022-09-15T11:03:41.129Z,1.50
2022-09-15T11:05:28.553Z,1.50
2022-09-15T11:07:06.507Z,1.60
2022-09-15T11:09:02.738Z,1.75
2022-09-15T11:10:44.182Z,1.80
2022-09-15T11:12:38.607Z,2.00
2022-09-15T11:14:27.589Z,2.10
2022-09-15T11:16:10.046Z,2.00
2022-09-15T11:17:54.302Z,2.25
2022-09-15T11:19:42.282Z,2.25
2022-09-15T11:21:30.771Z,2.30
2022-09-15T11:23:11.357Z,2.58
2022-09-15T11:24:47.958Z,2.30
2022-09-15T11:26:25.107Z,2.30
2022-09-15T11:28:03.885Z,2.50
2022-09-15T11:29:50.756Z,2.30
2022-09-15T11:31:27.237Z,2.60
2022-09-15T11:33:04.305Z,2.33
2022-09-15T11:34:44.538Z,2.63
2022-09-15T11:36:21.653Z,2.50
2022-09-15T11:38:00.476Z,2.42
2022-09-15T11:39:39.996Z,2.72
2022-09-15T11:41:27.143Z,2.20
2022-09-15T11:43:07.141Z,3.10
2022-09-15T11:44:42.127Z,3.00
2022-09-15T11:46:20.440Z,3.03
2022-09-15T11:47:57.955Z,2.47
2022-09-15T11:49:36.889Z,2.70
2022-09-15T11:51:12.782Z,2.90
2022-09-15T11:52:54.264Z,2.83
2022-09-15T11:54:36.993Z,3.00
2022-09-15T11:56:19.564Z,2.90
2022-09-15T11:58:00.527Z,3.00
2022-09-15T11:59:42.870Z,2.50
2022-09-15T12:01:19.704Z,2.75
2022-09-15T12:02:57.726Z,3.00
2022-09-15T12:04:36.351Z,2.97
2022-09-15T12:06:15.384Z,3.10
2022-09-15T12:07:54.030Z,3.20
2022-09-15T12:09:29.185Z,3.28
2022-09-15T12:11:07.338Z,2.83
2022-09-15T12:12:42.529Z,2.85
2022-09-15T12:14:20.280Z,2.42
2022-09-15T12:15:54.035Z,2.30
2022-09-15T12:17:34.429Z,2.30
2022-09-15T12:19:17.142Z,2.10
2022-09-15T12:20:55.227Z,1.77
2022-09-15T12:22:35.384Z,1.85
2022-09-15T12:24:16.240Z,2.00
2022-09-15T12:26:05.113Z,2.33
2022-09-15T12:27:38.131Z,2.60
2022-09-15T12:29:42.275Z,2.15
2022-09-15T12:32:57.972Z,2.10
2022-09-15T12:34:39.367Z,1.80
2022-09-15T12:36:44.969Z,1.90
2022-09-15T12:38:22.301Z,2.22
2022-09-15T12:39:55.309Z,2.00
2022-09-15T12:41:30.589Z,2.30
2022-09-15T12:43:05.045Z,2.30
2022-09-15T12:44:43.183Z,2.30
2022-09-15T12:46:19.504Z,2.60
2022-09-15T12:47:55.644Z,2.53
2022-09-15T12:49:33.639Z,2.90
2022-09-15T12:51:10.723Z,2.80
2022-09-15T12:52:50.336Z,2.78
2022-09-15T12:56:26.604Z,2.53
2022-09-15T12:58:02.217Z,2.22
2022-09-15T12:59:35.469Z,2.42
2022-09-15T13:03:03.253Z,2.40
2022-09-15T13:04:53.239Z,2.90
2022-09-15T13:06:27.514Z,2.42
2022-09-15T13:08:00.602Z,2.63
2022-09-15T13:09:45.194Z,3.08
2022-09-15T13:11:25.404Z,2.63
2022-09-15T13:13:19.337Z,2.97
2022-09-15T13:14:55.971Z,3.28
2022-09-15T13:16:34.317Z,3.85
2022-09-15T13:18:07.913Z,3.53
2022-09-15T13:19:46.493Z,3.00
2022-09-15T13:21:23.970Z,3.75
2022-09-15T13:22:57.331Z,3.80
2022-09-15T13:24:47.169Z,4.30
2022-09-15T13:26:27.392Z,3.88
2022-09-15T13:28:02.746Z,3.58
2022-09-15T13:29:41.225Z,3.50
2022-09-15T13:31:29.756Z,2.97
2022-09-15T13:33:11.721Z,3.65
2022-09-15T13:35:21.021Z,4.03
2022-09-15T13:39:21.269Z,4.18
2022-09-15T13:41:19.198Z,3.85
2022-09-15T13:43:08.663Z,3.00
2022-09-15T13:45:20.021Z,2.80
2022-09-15T13:47:07.693Z,3.25
2022-09-15T13:48:49.674Z,2.72
2022-09-15T13:50:25.732Z,2.45
2022-09-15T13:52:02.682Z,2.53
2022-09-15T13:53:45.361Z,2.30
2022-09-15T13:55:25.472Z,2.60
2022-09-15T13:57:02.333Z,2.03
2022-09-15T14:00:33.657Z,2.10
2022-09-15T14:02:09.698Z,2.17
2022-09-15T14:03:47.356Z,2.20
2022-09-15T14:05:21.529Z,1.65
2022-09-15T14:07:00.038Z,1.98
2022-09-15T14:08:35.162Z,2.00
2022-09-15T14:10:18.554Z,1.90
2022-09-15T14:11:55.235Z,1.70
2022-09-15T14:13:29.798Z,1.73
2022-09-15T14:15:08.064Z,1.98
2022-09-15T14:16:49.814Z,1.75
2022-09-15T14:18:22.846Z,2.17
2022-09-15T14:19:57.360Z,1.65
2022-09-15T14:21:33.085Z,2.10
2022-09-15T14:23:17.203Z,1.60
2022-09-15T14:24:51.894Z,1.80
2022-09-15T14:26:28.017Z,1.75
2022-09-15T14:28:00.936Z,1.80
2022-09-15T14:29:33.917Z,1.88
2022-09-15T14:31:08.466Z,1.50
2022-09-15T14:32:47.517Z,1.60
2022-09-15T14:34:23.983Z,1.92
2022-09-15T14:35:57.081Z,1.70
2022-09-15T14:37:32.013Z,1.90
2022-09-15T14:39:19.430Z,2.00
2022-09-15T14:40:53.505Z,1.90
2022-09-15T14:42:30.681Z,1.70
2022-09-15T14:44:04.582Z,2.03
2022-09-15T14:47:35.238Z,1.90
2022-09-15T14:49:11.134Z,1.83
2022-09-15T14:50:46.120Z,1.90
2022-09-15T14:52:25.580Z,1.90
2022-09-15T14:54:01.099Z,2.80
2022-09-15T14:55:39.074Z,2.35
2022-09-15T14:58:57.328Z,2.20
2022-09-15T15:00:35.129Z,2.10
2022-09-15T15:02:22.338Z,2.20
2022-09-15T15:04:09.997Z,2.30
2022-09-15T15:05:46.284Z,2.38
2022-09-15T15:07:23.366Z,2.67
2022-09-15T15:09:03.091Z,2.38
2022-09-15T15:10:37.525Z,3.15
2022-09-15T15:12:19.221Z,3.70
2022-09-15T15:13:53.482Z,3.15
2022-09-15T15:15:26.915Z,3.13
2022-09-15T15:18:40.230Z,3.25
2022-09-15T15:20:18.360Z,3.22
2022-09-15T15:21:51.340Z,2.67
2022-09-15T15:23:25.505Z,2.88
2022-09-15T15:24:58.764Z,3.15
2022-09-15T15:28:29.063Z,2.92
2022-09-15T15:30:26.711Z,2.50
2022-09-15T15:32:06.271Z,3.10
2022-09-15T15:33:47.997Z,2.75
2022-09-15T15:35:22.790Z,2.60
2022-09-15T15:37:04.196Z,2.78
2022-09-15T15:38:46.365Z,2.70
2022-09-15T15:40:23.146Z,3.00
2022-09-15T15:42:03.294Z,2.60
2022-09-15T15:43:36.521Z,1.90
2022-09-15T15:46:56.705Z,2.20
2022-09-15T15:48:36.884Z,2.47
2022-09-15T15:50:14.479Z,2.42
2022-09-15T15:51:50.168Z,2.78
2022-09-15T15:53:23.227Z,2.20
2022-09-15T15:54:56.230Z,2.67
2022-09-15T15:56:29.435Z,2.25
2022-09-15T15:59:35.219Z,3.20
2022-09-15T16:01:13.445Z,2.35
2022-09-15T16:02:46.652Z,2.65
2022-09-15T16:04:19.860Z,2.65
2022-09-15T16:07:33.162Z,2.85
2022-09-15T16:09:07.075Z,2.67
2022-09-15T16:10:42.748Z,2.70
2022-09-15T16:12:16.496Z,2.63
2022-09-15T16:13:51.582Z,2.50
2022-09-15T16:15:24.630Z,2.40
2022-09-15T16:17:00.406Z,2.22
2022-09-15T16:18:33.311Z,2.40
2022-09-15T16:20:07.250Z,2.50
2022-09-15T16:21:42.626Z,2.63
2022-09-15T16:23:19.181Z,2.00
2022-09-15T16:24:52.167Z,2.55
2022-09-15T16:26:26.043Z,2.42
2022-09-15T16:28:00.660Z,2.22
2022-09-15T16:29:36.270Z,2.10
2022-09-15T16:31:13.171Z,2.10
2022-09-15T16:32:46.272Z,2.63
2022-09-15T16:34:19.495Z,2.40
2022-09-15T16:37:28.203Z,3.42
2022-09-15T16:39:02.840Z,3.10
2022-09-15T16:40:36.905Z,3.13
2022-09-15T16:42:10.731Z,2.83
2022-09-15T16:43:44.246Z,2.80
2022-09-15T16:45:24.419Z,3.50
2022-09-15T16:46:57.486Z,3.50
2022-09-15T16:48:30.543Z,3.40
2022-09-15T16:50:03.604Z,2.60
2022-09-15T16:51:36.755Z,3.95
2022-09-15T16:53:13.747Z,3.78
2022-09-15T16:54:48.087Z,3.70
2022-09-15T16:56:21.122Z,3.03
2022-09-15T16:57:53.172Z,3.20
2022-09-15T16:59:26.221Z,3.47
2022-09-15T17:00:59.489Z,3.00
2022-09-15T17:04:09.800Z,3.17
2022-09-15T17:05:48.516Z,3.75
2022-09-15T17:07:21.917Z,3.20
2022-09-15T17:08:55.671Z,3.10
2022-09-15T17:10:30.141Z,2.60
2022-09-15T17:12:04.607Z,3.42
2022-09-15T17:13:37.651Z,4.03
2022-09-15T17:15:23.969Z,3.83
2022-09-15T17:16:57.000Z,4.07
2022-09-15T17:18:30.272Z,4.22
2022-09-15T17:21:36.299Z,3.70
2022-09-15T17:23:19.472Z,3.95
2022-09-15T17:24:52.447Z,3.90
2022-09-15T17:26:31.277Z,3.63
2022-09-15T17:28:04.528Z,3.15
2022-09-15T17:29:37.451Z,3.90
2022-09-15T17:31:15.534Z,4.32
2022-09-15T17:32:48.049Z,3.80
2022-09-15T17:34:21.055Z,3.90
2022-09-15T17:35:54.324Z,3.60
2022-09-15T17:38:59.114Z,3.53
2022-09-15T17:40:32.501Z,3.10
2022-09-15T17:42:07.746Z,2.92
2022-09-15T17:43:40.973Z,3.00
2022-09-15T17:45:20.210Z,3.08
2022-09-15T17:46:53.233Z,3.33
2022-09-15T17:48:26.350Z,3.20
2022-09-15T17:49:58.271Z,3.40
2022-09-15T17:51:31.314Z,3.72
2022-09-15T17:53:07.671Z,3.20
2022-09-15T17:54:43.732Z,3.15
2022-09-15T17:56:17.015Z,4.15
2022-09-15T18:00:57.256Z,3.28
2022-09-15T18:02:29.451Z,3.70
2022-09-15T18:04:03.080Z,3.65
2022-09-15T18:05:37.454Z,3.78
2022-09-15T18:07:11.221Z,3.78
2022-09-15T18:08:44.236Z,3.85
2022-09-15T18:10:18.580Z,3.92
2022-09-15T18:11:51.605Z,3.80
2022-09-15T18:13:27.558Z,4.47
2022-09-15T18:15:00.563Z,4.10
2022-09-15T18:16:33.522Z,4.20
2022-09-15T18:18:08.666Z,4.80
2022-09-15T18:19:42.222Z,5.03
2022-09-15T18:21:24.517Z,5.10
2022-09-15T18:22:59.939Z,4.85
2022-09-15T18:24:32.938Z,4.57
2022-09-15T18:26:05.926Z,4.72
2022-09-15T18:27:38.835Z,5.05
2022-09-15T18:29:13.225Z,5.10
2022-09-15T18:30:48.358Z,5.20
2022-09-15T18:32:21.478Z,5.40
2022-09-15T18:33:54.540Z,4.78
2022-09-15T18:35:28.125Z,4.60
2022-09-15T18:37:01.155Z,5.18
2022-09-15T18:38:34.263Z,4.40
2022-09-15T18:40:09.534Z,4.32
2022-09-15T18:41:42.698Z,4.00
2022-09-15T18:43:15.669Z,3.95
2022-09-15T18:44:51.986Z,4.13
2022-09-15T18:46:25.138Z,4.72
2022-09-15T18:47:58.162Z,4.18
2022-09-15T18:49:31.104Z,3.50
2022-09-15T18:51:08.915Z,3.50
2022-09-15T18:52:43.130Z,3.80
2022-09-15T18:54:16.093Z,3.78
2022-09-15T18:55:49.100Z,3.80
2022-09-15T18:57:22.315Z,3.88
2022-09-15T19:00:31.488Z,4.05
2022-09-15T19:02:04.738Z,4.80
2022-09-15T19:05:17.937Z,3.40
2022-09-15T19:06:51.831Z,4.18
2022-09-15T19:08:24.765Z,4.22
2022-09-15T19:09:57.842Z,4.00
2022-09-15T19:11:30.894Z,5.32
2022-09-15T19:13:04.855Z,6.70
2022-09-15T19:14:38.104Z,7.32
2022-09-15T19:16:12.515Z,5.28
2022-09-15T19:17:45.676Z,5.07
2022-09-15T19:19:19.569Z,4.70
2022-09-15T19:20:53.093Z,4.35
2022-09-15T19:22:26.539Z,3.97
2022-09-15T19:24:00.324Z,4.55
2022-09-15T19:25:34.021Z,4.35
2022-09-15T19:27:08.805Z,6.53
2022-09-15T19:28:42.104Z,5.20
2022-09-15T19:31:49.409Z,4.40
2022-09-15T19:33:22.387Z,4.63
2022-09-15T19:34:55.432Z,4.47
2022-09-15T19:36:29.289Z,4.25
2022-09-15T19:38:02.496Z,4.50
2022-09-15T19:39:35.617Z,4.35
2022-09-15T19:41:11.171Z,3.63
2022-09-15T19:42:45.447Z,3.90
2022-09-15T19:44:18.839Z,4.40
2022-09-15T19:45:52.006Z,4.30
2022-09-15T19:47:26.415Z,4.80
2022-09-15T19:48:59.956Z,4.53
2022-09-15T19:50:32.838Z,4.65
2022-09-15T19:52:06.493Z,3.90
2022-09-15T19:53:39.541Z,3.83
2022-09-15T19:55:13.317Z,3.88
2022-09-15T19:56:46.227Z,4.00
2022-09-15T19:58:19.601Z,4.10
2022-09-15T19:59:52.556Z,4.20
2022-09-15T20:01:26.761Z,4.05
2022-09-15T20:03:01.313Z,3.95
2022-09-15T20:04:34.361Z,3.95
2022-09-15T20:06:09.349Z,3.85
2022-09-15T20:07:42.375Z,4.35
2022-09-15T20:09:17.660Z,3.97
2022-09-15T20:10:50.650Z,4.07
2022-09-15T20:12:23.614Z,4.38
2022-09-15T20:13:57.244Z,4.55
2022-09-15T20:15:30.171Z,4.78
2022-09-15T20:17:03.137Z,4.85
2022-09-15T20:18:41.172Z,4.20
2022-09-15T20:20:14.132Z,4.40
2022-09-15T20:21:51.080Z,4.30
2022-09-15T20:23:25.049Z,4.45
2022-09-15T20:24:58.123Z,4.03
2022-09-15T20:26:31.728Z,3.97
2022-09-15T20:28:04.795Z,4.00
2022-09-15T20:29:37.802Z,3.83
2022-09-15T20:31:13.666Z,4.50
2022-09-15T20:32:47.838Z,4.18
2022-09-15T20:34:22.122Z,4.13
2022-09-15T20:35:55.120Z,4.10
2022-09-15T20:37:28.067Z,4.20
2022-09-15T20:39:03.295Z,4.22
2022-09-15T20:40:36.156Z,4.60
2022-09-15T20:42:09.071Z,4.32
2022-09-15T20:43:43.485Z,4.72
2022-09-15T20:45:16.481Z,4.68
2022-09-15T20:46:49.412Z,4.80
2022-09-15T20:48:22.363Z,4.90
2022-09-15T20:49:56.709Z,4.63
2022-09-15T20:51:31.747Z,4.50
2022-09-15T20:53:04.754Z,4.57
2022-09-15T20:54:37.699Z,4.90
2022-09-15T20:56:13.357Z,4.35
2022-09-15T20:57:59.544Z,4.15
2022-09-15T20:59:32.465Z,4.22
2022-09-15T21:01:07.732Z,4.50
2022-09-15T21:02:40.823Z,4.20
2022-09-15T21:04:13.834Z,4.55
2022-09-15T21:05:49.173Z,4.53
2022-09-15T21:07:22.145Z,4.57
2022-09-15T21:08:56.589Z,4.70
2022-09-15T21:10:30.314Z,4.38
2022-09-15T21:12:03.695Z,5.13
2022-09-15T21:13:37.553Z,4.63
2022-09-15T21:15:11.414Z,4.75
2022-09-15T21:16:44.645Z,4.50
2022-09-15T21:19:50.461Z,4.28
2022-09-15T21:21:26.233Z,4.40
2022-09-15T21:22:59.185Z,4.20
2022-09-15T21:24:32.101Z,4.22
2022-09-15T21:26:06.675Z,4.03
2022-09-15T21:27:39.711Z,4.43
2022-09-15T21:29:12.710Z,4.10
2022-09-15T21:30:45.966Z,4.10
2022-09-15T21:32:19.556Z,4.38
2022-09-15T21:33:53.878Z,4.30
2022-09-15T21:35:26.739Z,4.30
2022-09-15T21:37:01.182Z,4.53
2022-09-15T21:38:34.318Z,4.65
2022-09-15T21:40:08.445Z,4.93
2022-09-15T21:41:41.465Z,4.90
2022-09-15T21:43:13.510Z,4.63
2022-09-15T21:44:49.302Z,4.63
2022-09-15T21:46:24.579Z,4.85
2022-09-15T21:47:57.657Z,5.20
2022-09-15T21:49:31.336Z,5.13
2022-09-15T21:51:05.144Z,4.53
2022-09-15T21:52:39.477Z,5.05
2022-09-15T21:54:12.337Z,5.07
2022-09-15T21:55:45.385Z,4.75
2022-09-15T21:57:18.407Z,4.95
2022-09-15T21:58:50.675Z,5.00
2022-09-15T22:00:23.882Z,5.05
2022-09-15T22:01:58.231Z,4.53
2022-09-15T22:03:31.485Z,4.72
2022-09-15T22:05:04.515Z,4.63
2022-09-15T22:06:40.164Z,4.90
2022-09-15T22:08:16.600Z,5.20
2022-09-15T22:09:49.526Z,4.28
2022-09-15T22:11:22.604Z,5.28
2022-09-15T22:12:55.493Z,4.80
2022-09-15T22:14:28.374Z,4.50
2022-09-15T22:16:02.925Z,5.30
2022-09-15T22:17:35.851Z,4.88
2022-09-15T22:19:11.019Z,5.20
2022-09-15T22:20:45.338Z,4.90
2022-09-15T22:22:18.504Z,4.90
2022-09-15T22:23:54.965Z,4.95
2022-09-15T22:25:28.929Z,4.32
2022-09-15T22:27:01.833Z,4.90
2022-09-15T22:28:34.292Z,4.85
2022-09-15T22:30:08.540Z,4.85
2022-09-15T22:31:41.975Z,4.57
2022-09-15T22:33:14.173Z,4.70
2022-09-15T22:34:47.221Z,4.50
2022-09-15T22:36:25.246Z,4.90
2022-09-15T22:38:01.664Z,5.05
2022-09-15T22:39:58.110Z,4.70
2022-09-15T22:43:01.613Z,5.15
2022-09-15T22:44:34.498Z,5.03
2022-09-15T22:46:07.595Z,4.88
2022-09-15T22:47:40.583Z,5.18
2022-09-15T22:49:13.533Z,4.68
2022-09-15T22:50:45.542Z,5.95
2022-09-15T22:52:18.445Z,4.88
2022-09-15T22:53:57.608Z,4.85
2022-09-15T22:55:33.473Z,5.68
2022-09-15T22:57:06.629Z,5.43
2022-09-15T22:58:41.765Z,5.50